Time;durP1;ratioP1;P1;durP2;ratioP2;P2;SDS_P1;SDS_P2;PMS_P1;PMS_P2;Temp;Humidity;BMP_temperature;BMP_pressure;BME280_temperature;BME280_humidity;BME280_pressure;Samples;Min_cycle;Max_cycle;Signal;HPM_P1;HPM_P2
2022/05/06 00:00:11;;;;;;;12.27;6.60;;;14.60;67.70;;;;;;5127310;27;20027;-59
2022/05/06 00:02:37;;;;;;;13.05;6.30;;;14.60;67.90;;;;;;5124763;27;20037;-59
2022/05/06 00:05:04;;;;;;;9.93;6.07;;;14.60;67.90;;;;;;5124308;27;20023;-59
2022/05/06 00:07:30;;;;;;;8.60;6.10;;;14.50;68.00;;;;;;5094229;27;20063;-59
2022/05/06 00:09:56;;;;;;;12.52;6.82;;;14.50;68.00;;;;;;5128243;27;20555;-59
2022/05/06 00:12:21;;;;;;;12.75;7.18;;;14.40;68.10;;;;;;5129127;27;20139;-60
2022/05/06 00:14:47;;;;;;;8.80;7.07;;;14.40;68.20;;;;;;5118777;27;20031;-60
2022/05/06 00:17:13;;;;;;;6.70;5.38;;;14.40;68.20;;;;;;5126319;27;20042;-60
2022/05/06 00:19:41;;;;;;;13.05;6.57;;;14.30;68.20;;;;;;5127625;27;20035;-60
2022/05/06 00:22:08;;;;;;;6.78;5.95;;;14.30;68.30;;;;;;5110014;27;20034;-59
2022/05/06 00:24:34;;;;;;;11.07;6.22;;;14.30;68.30;;;;;;5129389;27;20121;-60
2022/05/06 00:27:00;;;;;;;10.68;6.13;;;14.20;68.40;;;;;;5128516;27;20031;-60
2022/05/06 00:29:25;;;;;;;10.18;6.70;;;14.20;68.40;;;;;;5125511;27;20027;-59
2022/05/06 00:31:53;;;;;;;11.63;7.50;;;14.10;68.40;;;;;;5121708;27;20028;-60
2022/05/06 00:34:19;;;;;;;13.18;5.85;;;14.10;68.40;;;;;;5124632;27;20060;-59
2022/05/06 00:36:44;;;;;;;11.45;6.57;;;14.10;68.50;;;;;;5126084;27;20427;-59
2022/05/06 00:39:10;;;;;;;13.60;6.15;;;14.00;68.50;;;;;;5121702;27;20038;-59
2022/05/06 00:41:36;;;;;;;11.70;7.70;;;14.00;68.60;;;;;;5125758;27;20031;-59
2022/05/06 00:44:06;;;;;;;10.73;6.82;;;14.00;68.70;;;;;;5106032;28;20358;-60
2022/05/06 00:46:33;;;;;;;10.18;6.00;;;13.90;68.70;;;;;;5125809;27;20114;-60
2022/05/06 00:49:00;;;;;;;9.70;6.60;;;13.90;68.70;;;;;;5128066;28;20568;-59
2022/05/06 00:51:26;;;;;;;10.88;6.82;;;13.90;68.90;;;;;;5126253;28;20027;-59
2022/05/06 00:53:56;;;;;;;15.95;6.75;;;13.80;68.90;;;;;;5125648;28;20076;-59
2022/05/06 00:56:24;;;;;;;11.10;7.60;;;13.70;68.90;;;;;;5084944;28;20098;-63
2022/05/06 00:58:52;;;;;;;15.60;8.40;;;13.70;68.90;;;;;;5116603;28;20095;-63
2022/05/06 01:01:18;;;;;;;11.48;7.13;;;13.70;69.10;;;;;;5116875;28;20066;-60
2022/05/06 01:03:44;;;;;;;10.45;6.15;;;13.70;69.30;;;;;;5102363;28;20068;-60
2022/05/06 01:06:13;;;;;;;10.55;7.65;;;13.60;69.30;;;;;;5080213;28;20502;-59
2022/05/06 01:08:39;;;;;;;9.73;6.88;;;13.60;69.40;;;;;;5110383;28;20056;-59
2022/05/06 01:11:07;;;;;;;10.45;6.45;;;13.60;69.40;;;;;;5122645;27;20542;-59
2022/05/06 01:13:44;;;;;;;10.30;6.80;;;13.60;69.40;;;;;;5129694;27;20023;-59
2022/05/06 01:16:12;;;;;;;19.92;7.32;;;13.50;69.40;;;;;;5133137;27;20046;-60
2022/05/06 01:18:38;;;;;;;11.35;7.50;;;13.50;69.50;;;;;;5132135;27;20106;-59
2022/05/06 01:21:06;;;;;;;11.23;6.95;;;13.40;69.60;;;;;;5129994;27;20083;-63
2022/05/06 01:23:32;;;;;;;10.20;7.07;;;13.40;69.70;;;;;;5109945;27;20400;-63
2022/05/06 01:25:58;;;;;;;13.05;7.72;;;13.40;69.90;;;;;;5130673;27;20030;-63
2022/05/06 01:28:26;;;;;;;11.82;7.85;;;13.30;70.00;;;;;;5129415;27;20066;-64
2022/05/06 01:31:00;;;;;;;15.18;7.90;;;13.30;70.00;;;;;;5122691;27;20027;-63
2022/05/06 01:33:31;;;;;;;12.73;7.53;;;13.30;70.00;;;;;;5127970;27;20019;-63
2022/05/06 01:36:05;;;;;;;12.02;7.30;;;13.20;70.10;;;;;;5128592;27;20058;-59
2022/05/06 01:38:40;;;;;;;8.23;6.45;;;13.20;70.20;;;;;;5124274;27;20389;-59
2022/05/06 01:41:37;;;;;;;7.47;6.57;;;13.20;70.20;;;;;;5140218;27;20050;-63
2022/05/06 01:44:08;;;;;;;10.60;6.28;;;13.20;70.30;;;;;;5107428;27;20081;-59
2022/05/06 01:46:36;;;;;;;11.57;6.90;;;13.10;70.40;;;;;;5113967;27;20031;-63
2022/05/06 01:49:02;;;;;;;12.45;7.20;;;13.10;70.60;;;;;;5129455;27;20050;-63
2022/05/06 01:51:29;;;;;;;9.18;6.55;;;13.10;70.70;;;;;;5132765;27;20026;-63
2022/05/06 01:53:55;;;;;;;7.75;5.95;;;13.00;70.80;;;;;;5112911;27;20110;-63
2022/05/06 01:56:22;;;;;;;11.90;7.88;;;13.00;70.80;;;;;;5131367;27;20632;-59
2022/05/06 01:58:48;;;;;;;11.93;7.88;;;13.00;71.00;;;;;;5129452;27;20110;-59
2022/05/06 02:01:14;;;;;;;10.77;7.35;;;12.90;71.00;;;;;;5123518;27;20051;-59
2022/05/06 02:06:25;;;;;;;12.65;7.75;;;12.90;71.20;;;;;;5129496;27;20108;-59
2022/05/06 02:08:51;;;;;;;17.38;9.25;;;12.90;71.40;;;;;;5127820;27;20028;-59
2022/05/06 02:11:16;;;;;;;13.63;9.45;;;12.90;71.70;;;;;;5130943;27;20473;-59
2022/05/06 02:13:42;;;;;;;19.70;9.65;;;12.90;72.10;;;;;;5131424;27;20102;-59
2022/05/06 02:16:08;;;;;;;15.95;9.00;;;12.90;72.60;;;;;;5126684;27;20019;-59
2022/05/06 02:18:34;;;;;;;21.17;10.48;;;12.90;72.90;;;;;;5131889;27;20464;-63
2022/05/06 02:21:01;;;;;;;20.70;8.93;;;12.90;73.20;;;;;;5107383;27;20483;-63
2022/05/06 02:23:27;;;;;;;19.05;8.70;;;12.90;73.50;;;;;;5129111;27;20027;-64
2022/05/06 02:25:53;;;;;;;15.95;8.93;;;12.90;74.30;;;;;;5110357;27;20393;-63
2022/05/06 02:28:19;;;;;;;12.60;7.60;;;12.90;74.00;;;;;;5128726;27;20027;-63
2022/05/06 02:33:31;;;;;;;13.10;7.38;;;13.00;74.40;;;;;;5130567;27;20054;-63
2022/05/06 02:35:58;;;;;;;12.40;7.70;;;12.90;74.40;;;;;;5130646;27;20019;-59
2022/05/06 02:38:25;;;;;;;12.07;8.88;;;12.90;74.70;;;;;;5126694;27;20067;-63
2022/05/06 02:40:51;;;;;;;29.98;7.60;;;12.90;74.80;;;;;;5126124;27;20042;-60
2022/05/06 02:43:17;;;;;;;12.93;7.93;;;12.90;74.80;;;;;;5112393;27;20027;-59
2022/05/06 02:45:43;;;;;;;12.80;8.98;;;12.80;75.00;;;;;;5109651;27;20024;-60
2022/05/06 02:48:10;;;;;;;11.60;8.52;;;12.80;75.20;;;;;;5094292;27;20044;-63
2022/05/06 02:50:36;;;;;;;15.77;7.68;;;12.80;75.30;;;;;;5103780;27;20101;-63
2022/05/06 02:53:02;;;;;;;10.20;6.78;;;12.80;75.20;;;;;;5130655;27;20023;-63
2022/05/06 02:55:28;;;;;;;9.88;7.72;;;12.70;75.20;;;;;;5111184;27;20084;-64
2022/05/06 02:57:54;;;;;;;9.65;6.63;;;12.70;75.80;;;;;;5127322;27;20392;-63
2022/05/06 03:00:20;;;;;;;10.98;7.40;;;12.70;75.30;;;;;;5128867;27;20444;-63
2022/05/06 03:02:46;;;;;;;9.90;7.28;;;12.70;75.40;;;;;;5131249;27;20031;-63
2022/05/06 03:05:12;;;;;;;11.40;7.93;;;12.60;75.20;;;;;;5127882;27;20035;-63
2022/05/06 03:07:39;;;;;;;11.25;8.00;;;12.50;75.10;;;;;;5122433;27;20394;-63
2022/05/06 03:10:05;;;;;;;7.57;5.60;;;12.50;75.20;;;;;;5129321;27;20064;-60
2022/05/06 03:12:31;;;;;;;10.40;6.63;;;12.40;75.00;;;;;;5130330;27;20370;-59
2022/05/06 03:14:58;;;;;;;8.23;6.10;;;12.30;75.10;;;;;;5109873;27;20080;-60
2022/05/06 03:17:24;;;;;;;11.10;6.28;;;12.30;75.00;;;;;;5122193;27;20476;-60
2022/05/06 03:19:50;;;;;;;7.35;5.13;;;12.30;75.10;;;;;;5111929;27;20073;-60
2022/05/06 03:22:17;;;;;;;7.88;5.25;;;12.20;75.00;;;;;;5130035;27;20361;-60
2022/05/06 03:24:44;;;;;;;4.97;4.47;;;12.20;75.00;;;;;;5125823;27;20046;-59
2022/05/06 03:27:59;;;;;;;7.60;5.47;;;12.20;74.90;;;;;;5129898;27;20035;-63
2022/05/06 03:29:57;;;;;;;7.00;5.05;;;12.10;74.80;;;;;;5128614;27;20023;-59
2022/05/06 03:32:23;;;;;;;4.82;4.20;;;12.10;74.80;;;;;;5129799;27;20379;-59
2022/05/06 03:34:50;;;;;;;8.00;5.65;;;12.10;74.80;;;;;;5124008;27;20407;-63
2022/05/06 03:37:16;;;;;;;7.85;5.88;;;12.10;74.80;;;;;;5128194;27;20035;-64
2022/05/06 03:39:41;;;;;;;7.15;4.47;;;12.00;74.70;;;;;;5130516;27;20035;-64
2022/05/06 03:42:07;;;;;;;7.70;6.07;;;12.00;74.70;;;;;;5111824;27;20106;-63
2022/05/06 03:44:33;;;;;;;5.63;4.43;;;12.00;74.70;;;;;;5130388;27;20058;-63
2022/05/06 03:46:58;;;;;;;8.57;5.35;;;12.00;74.70;;;;;;5130180;27;20031;-59
2022/05/06 03:49:24;;;;;;;8.93;5.20;;;12.00;74.70;;;;;;5120421;27;20047;-63
2022/05/06 03:51:50;;;;;;;6.78;4.85;;;11.90;74.60;;;;;;5127169;27;20204;-63
2022/05/06 03:54:16;;;;;;;9.63;5.05;;;11.90;74.60;;;;;;5120083;27;20110;-63
2022/05/06 03:56:42;;;;;;;6.55;5.60;;;11.80;74.60;;;;;;5113751;27;20023;-63
2022/05/06 03:59:07;;;;;;;5.40;4.72;;;11.80;74.60;;;;;;5118228;27;20027;-63
2022/05/06 04:01:33;;;;;;;7.00;4.70;;;11.80;74.70;;;;;;5110172;27;20046;-63
2022/05/06 04:03:59;;;;;;;7.57;4.72;;;11.70;74.70;;;;;;5130352;27;20190;-63
2022/05/06 04:06:25;;;;;;;6.75;5.28;;;11.70;74.60;;;;;;5128805;27;20491;-64
2022/05/06 04:08:51;;;;;;;7.40;5.03;;;11.70;74.50;;;;;;5127211;27;20035;-64
2022/05/06 04:11:19;;;;;;;5.53;4.25;;;11.70;74.50;;;;;;5109422;27;20050;-63
2022/05/06 04:13:45;;;;;;;8.15;4.90;;;11.70;74.50;;;;;;5130099;27;20052;-64
2022/05/06 04:16:10;;;;;;;5.72;4.13;;;11.60;74.40;;;;;;5100702;27;20031;-60
2022/05/06 04:18:36;;;;;;;6.97;4.57;;;11.60;74.50;;;;;;5126762;27;20037;-59
2022/05/06 04:23:47;;;;;;;8.10;5.38;;;11.50;74.50;;;;;;5129951;27;20146;-63
2022/05/06 04:26:12;;;;;;;5.25;4.05;;;11.50;74.70;;;;;;5126492;27;20099;-64
2022/05/06 04:28:39;;;;;;;4.78;4.18;;;11.50;74.80;;;;;;5120960;27;20028;-64
2022/05/06 04:31:05;;;;;;;6.00;5.03;;;11.50;74.80;;;;;;5126007;27;20030;-64
2022/05/06 04:33:31;;;;;;;4.57;3.88;;;11.40;74.80;;;;;;5127453;27;20103;-64
2022/05/06 04:35:59;;;;;;;4.45;3.55;;;11.40;75.50;;;;;;5127186;27;20023;-60
2022/05/06 04:38:25;;;;;;;5.97;5.22;;;11.40;75.00;;;;;;5122569;27;20066;-60
2022/05/06 04:40:54;;;;;;;5.68;3.70;;;11.40;75.10;;;;;;5123722;27;20453;-59
2022/05/06 04:43:20;;;;;;;7.35;5.10;;;11.40;75.30;;;;;;5127345;27;20445;-59
2022/05/06 04:45:48;;;;;;;6.28;3.95;;;11.40;75.30;;;;;;5128680;27;20499;-60
2022/05/06 04:48:14;;;;;;;7.60;4.50;;;11.40;75.40;;;;;;5127589;27;20031;-60
2022/05/06 04:50:41;;;;;;;6.90;4.38;;;11.40;75.40;;;;;;5128709;28;20088;-60
2022/05/06 04:53:09;;;;;;;6.70;4.32;;;11.40;75.70;;;;;;5125790;28;20119;-60
2022/05/06 04:55:35;;;;;;;5.78;4.53;;;11.50;75.80;;;;;;5128099;28;20023;-59
2022/05/06 04:58:02;;;;;;;8.25;4.78;;;11.50;75.80;;;;;;5128714;28;20027;-63
2022/05/06 05:00:28;;;;;;;6.78;4.70;;;11.50;75.80;;;;;;5127883;28;20031;-64
2022/05/06 05:02:54;;;;;;;4.50;4.10;;;11.50;75.90;;;;;;5124266;28;20554;-64
2022/05/06 05:05:20;;;;;;;6.57;5.13;;;11.50;76.10;;;;;;5128635;28;20560;-59
2022/05/06 05:07:45;;;;;;;6.38;5.00;;;11.50;76.20;;;;;;5128860;28;20039;-60
2022/05/06 05:10:12;;;;;;;5.45;4.40;;;11.60;76.30;;;;;;5128668;28;20125;-60
2022/05/06 05:12:38;;;;;;;4.43;3.95;;;11.60;76.40;;;;;;5127983;28;20522;-64
2022/05/06 05:15:04;;;;;;;6.30;4.38;;;11.60;76.50;;;;;;5125850;28;20107;-60
2022/05/06 05:17:30;;;;;;;6.93;4.25;;;11.60;77.10;;;;;;5127512;28;20453;-59
2022/05/06 05:19:56;;;;;;;5.63;4.72;;;11.60;76.80;;;;;;5109826;28;20058;-60
2022/05/06 05:22:22;;;;;;;5.03;4.35;;;11.60;76.80;;;;;;5128302;28;20027;-60
2022/05/06 05:24:48;;;;;;;5.85;4.68;;;11.60;76.90;;;;;;5124633;28;20513;-60
2022/05/06 05:27:14;;;;;;;6.05;4.03;;;11.60;77.00;;;;;;5128455;28;20024;-59
2022/05/06 05:29:41;;;;;;;7.13;4.53;;;11.70;77.20;;;;;;5126037;28;20353;-59
2022/05/06 05:32:08;;;;;;;6.68;4.18;;;11.70;77.20;;;;;;5125874;28;20060;-64
2022/05/06 05:34:34;;;;;;;6.68;4.35;;;11.70;77.30;;;;;;5128720;28;20035;-64
2022/05/06 05:37:00;;;;;;;20.88;4.00;;;11.80;77.40;;;;;;5124755;28;20024;-60
2022/05/06 05:39:26;;;;;;;6.78;4.68;;;11.80;77.40;;;;;;5106368;28;20619;-60
2022/05/06 05:41:52;;;;;;;5.65;4.57;;;11.70;77.40;;;;;;5107925;28;20027;-59
2022/05/06 05:49:47;;;;;;;6.97;4.40;;;11.80;77.60;;;;;;5112795;28;20050;-59
2022/05/06 05:52:13;;;;;;;8.90;5.13;;;11.80;77.70;;;;;;5125165;28;20035;-64
2022/05/06 05:54:39;;;;;;;7.90;4.32;;;11.80;77.90;;;;;;5103699;28;20074;-64
2022/05/06 05:57:06;;;;;;;6.90;4.88;;;11.80;78.00;;;;;;5129468;27;20083;-64
2022/05/06 05:59:33;;;;;;;6.13;4.90;;;11.80;78.50;;;;;;5129442;27;20038;-59
2022/05/06 06:02:01;;;;;;;5.22;4.10;;;11.80;78.30;;;;;;5131603;27;20025;-60
2022/05/06 06:04:27;;;;;;;5.72;4.05;;;11.90;78.30;;;;;;5131886;27;20023;-64
2022/05/06 06:06:53;;;;;;;7.70;4.75;;;11.90;78.30;;;;;;5129052;27;20023;-64
2022/05/06 06:09:22;;;;;;;6.82;4.45;;;11.90;78.40;;;;;;5121931;27;20453;-63
2022/05/06 06:11:48;;;;;;;6.70;4.55;;;11.90;78.50;;;;;;5130245;27;20485;-64
2022/05/06 06:14:18;;;;;;;7.13;5.30;;;11.90;78.90;;;;;;5131321;27;20019;-64
2022/05/06 06:16:44;;;;;;;6.40;3.78;;;11.90;79.40;;;;;;5123741;27;20019;-63
2022/05/06 06:19:13;;;;;;;5.03;3.83;;;12.00;79.40;;;;;;5124045;27;20489;-64
2022/05/06 06:21:39;;;;;;;5.93;4.28;;;12.00;79.20;;;;;;5124711;27;20470;-63
2022/05/06 06:24:05;;;;;;;4.20;3.05;;;12.10;79.20;;;;;;5112085;27;20027;-63
2022/05/06 06:26:30;;;;;;;6.47;4.57;;;12.10;79.10;;;;;;5119147;27;20035;-64
2022/05/06 06:28:56;;;;;;;6.40;3.90;;;12.20;79.10;;;;;;5128096;27;20478;-64
2022/05/06 06:31:22;;;;;;;6.00;4.82;;;12.20;79.80;;;;;;5129501;27;20127;-63
2022/05/06 06:33:47;;;;;;;6.50;4.20;;;12.30;79.20;;;;;;5127828;27;20114;-62
2022/05/06 06:36:13;;;;;;;6.45;4.45;;;12.30;79.00;;;;;;5131260;27;20015;-63
2022/05/06 06:38:39;;;;;;;7.70;4.97;;;12.40;79.10;;;;;;5112378;27;20129;-62
2022/05/06 06:41:05;;;;;;;4.18;3.78;;;12.40;79.10;;;;;;5112653;27;20308;-63
2022/05/06 06:43:31;;;;;;;5.55;3.88;;;12.50;79.10;;;;;;5112861;27;20053;-63
2022/05/06 06:45:57;;;;;;;5.75;4.07;;;12.60;79.30;;;;;;5102881;27;20173;-62
2022/05/06 06:48:24;;;;;;;7.13;5.80;;;12.60;79.20;;;;;;5101670;27;20087;-62
2022/05/06 06:50:51;;;;;;;7.45;4.65;;;12.70;79.20;;;;;;5104264;27;20472;-64
2022/05/06 06:53:17;;;;;;;6.97;5.30;;;12.70;79.40;;;;;;5091947;27;20474;-63
2022/05/06 06:55:42;;;;;;;7.93;5.22;;;12.80;79.50;;;;;;5095694;27;20123;-60
2022/05/06 06:58:08;;;;;;;11.32;6.20;;;12.80;79.30;;;;;;5107278;27;20038;-60
2022/05/06 07:00:34;;;;;;;10.35;6.25;;;12.90;79.40;;;;;;5117585;27;20024;-60
2022/05/06 07:02:59;;;;;;;9.23;5.07;;;12.90;79.40;;;;;;5118414;27;20480;-59
2022/05/06 07:05:25;;;;;;;7.35;5.60;;;13.00;79.50;;;;;;5123714;27;20038;-60
2022/05/06 07:13:19;;;;;;;7.43;5.47;;;13.00;79.50;;;;;;5119320;27;20033;-59
2022/05/06 07:15:45;;;;;;;6.25;4.20;;;13.10;79.40;;;;;;5120810;27;20051;-60
2022/05/06 07:18:11;;;;;;;10.02;7.13;;;13.10;79.30;;;;;;5120448;27;20572;-60
2022/05/06 07:20:36;;;;;;;10.18;4.78;;;13.20;79.30;;;;;;5100916;27;20034;-60
2022/05/06 07:23:03;;;;;;;9.00;5.55;;;13.20;79.30;;;;;;5123764;27;20486;-60
2022/05/06 07:25:29;;;;;;;8.43;5.90;;;13.20;79.50;;;;;;5111617;27;20043;-59
2022/05/06 07:27:55;;;;;;;9.77;6.28;;;13.30;79.60;;;;;;5116773;27;20114;-60
2022/05/06 07:30:21;;;;;;;12.05;5.82;;;13.30;79.70;;;;;;5126342;27;20126;-60
2022/05/06 07:32:47;;;;;;;11.50;7.00;;;13.40;79.70;;;;;;5125723;27;20027;-59
2022/05/06 07:35:13;;;;;;;9.40;6.07;;;13.40;79.70;;;;;;5129869;27;20426;-60
2022/05/06 07:37:39;;;;;;;10.90;6.57;;;13.40;79.80;;;;;;5126675;27;20031;-60
2022/05/06 07:40:05;;;;;;;12.65;6.25;;;13.50;79.90;;;;;;5128135;27;20031;-60
2022/05/06 07:42:33;;;;;;;12.18;6.95;;;13.50;79.80;;;;;;5128859;27;20039;-63
2022/05/06 07:44:59;;;;;;;8.25;5.32;;;13.60;79.80;;;;;;5118292;27;20464;-63
2022/05/06 07:47:25;;;;;;;14.95;8.20;;;13.60;79.70;;;;;;5104060;27;20059;-63
2022/05/06 07:49:51;;;;;;;10.63;6.43;;;13.70;79.70;;;;;;5103876;27;20047;-63
2022/05/06 07:52:17;;;;;;;11.13;6.75;;;13.80;79.70;;;;;;5109510;27;20023;-63
2022/05/06 07:54:42;;;;;;;14.13;5.65;;;13.80;79.50;;;;;;5120468;27;20038;-63
2022/05/06 07:57:08;;;;;;;10.63;7.15;;;13.90;79.30;;;;;;5121713;27;20020;-63
2022/05/06 07:59:34;;;;;;;8.60;6.78;;;13.90;79.20;;;;;;5105760;27;20050;-63
2022/05/06 08:04:48;;;;;;;7.80;5.43;;;14.00;79.30;;;;;;5111750;27;20118;-63
2022/05/06 08:07:14;;;;;;;11.73;7.13;;;14.00;79.10;;;;;;5115877;27;20109;-63
2022/05/06 08:09:40;;;;;;;8.23;6.35;;;14.10;79.00;;;;;;5117830;27;20085;-63
2022/05/06 08:12:06;;;;;;;11.48;7.05;;;14.10;78.80;;;;;;5085475;27;20081;-63
2022/05/06 08:14:32;;;;;;;8.00;6.32;;;14.20;78.90;;;;;;5085865;28;21957;-60
2022/05/06 08:16:59;;;;;;;7.80;5.93;;;14.20;78.80;;;;;;5114496;27;20019;-60
2022/05/06 08:19:25;;;;;;;8.23;5.35;;;14.20;78.90;;;;;;5114756;27;20080;-60
2022/05/06 08:21:52;;;;;;;5.55;4.20;;;14.20;78.90;;;;;;5115774;27;20055;-60
2022/05/06 08:24:19;;;;;;;6.07;4.75;;;14.20;78.70;;;;;;5106656;27;20162;-60
2022/05/06 08:26:46;;;;;;;7.47;4.90;;;14.30;78.80;;;;;;5116359;27;20388;-59
2022/05/06 08:29:12;;;;;;;6.70;3.95;;;14.40;78.50;;;;;;5124451;27;20073;-60
2022/05/06 08:31:37;;;;;;;6.45;4.20;;;14.50;78.30;;;;;;5117249;27;20031;-63
2022/05/06 08:34:11;;;;;;;9.35;4.53;;;14.60;78.20;;;;;;5108033;27;20054;-63
2022/05/06 08:36:38;;;;;;;7.03;3.75;;;14.80;78.00;;;;;;5122087;27;20106;-63
2022/05/06 08:39:06;;;;;;;5.28;3.95;;;14.80;77.40;;;;;;5127629;27;20039;-63
2022/05/06 08:41:32;;;;;;;4.30;3.63;;;14.90;77.40;;;;;;5120949;27;20154;-63
2022/05/06 08:43:58;;;;;;;3.30;2.55;;;15.00;77.20;;;;;;5119384;27;20070;-63
2022/05/06 08:51:57;;;;;;;6.43;3.83;;;15.40;76.10;;;;;;5126603;28;20079;-63
2022/05/06 08:54:23;;;;;;;5.38;3.38;;;15.40;75.40;;;;;;5090642;28;20035;-63
2022/05/06 08:56:49;;;;;;;7.50;3.35;;;15.50;75.40;;;;;;5127045;28;20441;-63
2022/05/06 08:59:14;;;;;;;4.72;3.28;;;15.50;75.30;;;;;;5124127;28;20031;-63
2022/05/06 09:01:41;;;;;;;4.55;2.97;;;15.70;75.20;;;;;;5125268;28;20038;-63
2022/05/06 09:04:07;;;;;;;5.53;2.97;;;15.80;75.00;;;;;;5126469;28;20062;-63
2022/05/06 09:06:34;;;;;;;4.13;2.60;;;15.90;74.60;;;;;;5125066;28;20046;-64
2022/05/06 09:09:00;;;;;;;3.28;2.65;;;16.00;74.40;;;;;;5128389;28;20027;-60
2022/05/06 09:16:39;;;;;;;4.47;3.00;;;16.20;73.70;;;;;;5125546;28;20050;-59
2022/05/06 09:17:24;;;;;;;4.30;3.10;;;16.30;73.70;;;;;;5126033;28;20035;-59
2022/05/06 09:19:50;;;;;;;4.88;3.03;;;16.40;73.40;;;;;;5105954;28;20172;-59
2022/05/06 09:22:16;;;;;;;6.13;3.28;;;16.50;73.20;;;;;;5127216;28;20107;-60
2022/05/06 09:24:44;;;;;;;3.92;2.58;;;16.50;72.90;;;;;;5119405;28;20388;-60
2022/05/06 09:27:11;;;;;;;5.65;3.67;;;16.60;72.80;;;;;;5126292;28;20030;-60
2022/05/06 09:29:57;;;;;;;5.28;3.47;;;16.80;72.50;;;;;;5123513;28;20074;-63
2022/05/06 09:32:30;;;;;;;5.65;3.22;;;16.90;72.00;;;;;;5128740;27;20514;-63
2022/05/06 09:35:20;;;;;;;5.00;2.75;;;17.00;72.10;;;;;;5127498;27;20057;-63
2022/05/06 09:37:47;;;;;;;3.17;2.15;;;17.00;72.10;;;;;;5132601;27;20658;-63
2022/05/06 09:40:30;;;;;;;2.63;1.58;;;17.00;70.90;;;;;;5133544;27;20420;-63
2022/05/06 09:43:00;;;;;;;2.22;1.83;;;17.10;70.40;;;;;;5132779;27;20054;-63
2022/05/06 09:45:30;;;;;;;2.03;1.83;;;17.20;70.10;;;;;;5133981;27;20019;-63
2022/05/06 09:47:58;;;;;;;3.15;1.75;;;17.30;68.00;;;;;;5133058;27;20419;-63
2022/05/06 09:50:45;;;;;;;1.25;1.10;;;17.30;67.70;;;;;;5132786;27;20036;-64
2022/05/06 09:53:16;;;;;;;2.45;1.10;;;17.40;67.60;;;;;;5132763;27;20043;-63
2022/05/06 09:55:46;;;;;;;1.55;1.35;;;17.60;66.90;;;;;;5133250;27;20095;-60
2022/05/06 09:58:16;;;;;;;1.92;1.67;;;17.60;66.10;;;;;;5132367;27;20084;-60
2022/05/06 10:00:42;;;;;;;1.63;1.40;;;17.70;66.20;;;;;;5132717;27;20037;-60
2022/05/06 10:03:11;;;;;;;1.33;1.23;;;17.80;66.20;;;;;;5116472;27;20182;-60
2022/05/06 10:05:38;;;;;;;1.73;1.30;;;17.90;65.00;;;;;;5104901;27;20127;-59
2022/05/06 10:08:19;;;;;;;2.28;1.52;;;18.00;64.90;;;;;;5116882;27;20077;-60
2022/05/06 10:10:56;;;;;;;5.15;2.88;;;18.10;64.40;;;;;;5098580;27;20106;-59
2022/05/06 10:13:23;;;;;;;2.05;1.58;;;18.20;64.30;;;;;;5124253;27;20122;-60
2022/05/06 10:15:52;;;;;;;2.88;2.03;;;18.20;64.50;;;;;;5123544;27;20038;-60
2022/05/06 10:18:32;;;;;;;2.38;1.67;;;18.30;64.70;;;;;;5107397;27;20077;-64
2022/05/06 10:20:59;;;;;;;4.90;2.45;;;18.40;64.70;;;;;;5129289;27;20035;-60
2022/05/06 10:23:52;;;;;;;1.58;1.45;;;18.50;64.30;;;;;;5123320;27;20342;-60
2022/05/06 10:26:39;;;;;;;1.92;1.42;;;18.60;64.30;;;;;;5125829;27;20023;-60
2022/05/06 10:34:55;;;;;;;3.28;2.00;;;18.90;61.80;;;;;;5120250;27;20108;-63
2022/05/06 10:37:21;;;;;;;4.63;1.98;;;18.90;62.00;;;;;;5131231;27;20154;-63
2022/05/06 10:39:47;;;;;;;2.30;1.52;;;19.00;62.30;;;;;;5121729;27;20023;-63
2022/05/06 10:42:16;;;;;;;1.92;1.60;;;19.10;61.50;;;;;;5103963;28;20031;-63
2022/05/06 10:44:47;;;;;;;3.08;2.65;;;19.30;61.30;;;;;;5101348;27;20086;-60
2022/05/06 10:47:12;;;;;;;2.78;2.30;;;19.30;61.10;;;;;;5115692;27;20024;-60
2022/05/06 10:49:38;;;;;;;2.15;1.92;;;19.40;61.30;;;;;;5118099;27;20100;-60
2022/05/06 10:52:15;;;;;;;2.97;1.60;;;19.50;61.50;;;;;;5114247;27;20344;-61
2022/05/06 10:54:48;;;;;;;3.97;2.10;;;19.60;61.30;;;;;;5130697;27;20470;-63
2022/05/06 10:57:22;;;;;;;2.38;2.15;;;19.70;60.70;;;;;;5111305;27;20031;-63
2022/05/06 10:59:57;;;;;;;3.33;2.13;;;19.70;60.40;;;;;;5129956;27;20031;-63
2022/05/06 11:02:28;;;;;;;2.83;2.53;;;19.80;60.00;;;;;;5119972;27;20019;-63
2022/05/06 11:04:59;;;;;;;2.47;2.00;;;19.90;60.10;;;;;;5098765;27;20383;-60
2022/05/06 11:07:26;;;;;;;2.25;2.05;;;20.00;60.00;;;;;;5111921;27;20035;-60
2022/05/06 11:09:52;;;;;;;6.65;1.67;;;20.10;59.30;;;;;;5089692;28;20123;-60
2022/05/06 11:12:36;;;;;;;2.72;1.40;;;20.10;59.00;;;;;;5102985;28;20134;-60
2022/05/06 11:15:04;;;;;;;1.92;1.73;;;20.20;58.70;;;;;;5112830;27;20497;-59
2022/05/06 11:17:31;;;;;;;1.63;1.00;;;20.30;58.70;;;;;;5101455;28;20024;-60
2022/05/06 11:19:58;;;;;;;2.95;2.15;;;20.40;58.30;;;;;;5121476;27;20103;-63
2022/05/06 11:22:25;;;;;;;4.45;2.70;;;20.50;56.90;;;;;;5116850;27;20521;-63
2022/05/06 11:24:58;;;;;;;1.52;1.20;;;20.50;55.70;;;;;;5095830;28;20041;-63
2022/05/06 11:27:24;;;;;;;1.42;1.33;;;20.50;56.30;;;;;;5087225;28;20698;-63
2022/05/06 11:29:57;;;;;;;1.52;1.40;;;20.60;56.50;;;;;;5106424;28;20019;-63
2022/05/06 11:32:29;;;;;;;1.63;1.52;;;20.70;56.30;;;;;;5066870;28;20028;-60
2022/05/06 11:34:57;;;;;;;1.73;1.60;;;20.70;56.00;;;;;;5105938;28;20461;-59
2022/05/06 11:37:28;;;;;;;3.10;1.85;;;20.90;56.30;;;;;;5099301;27;20038;-59
2022/05/06 11:40:18;;;;;;;3.50;1.70;;;20.90;55.50;;;;;;5100902;27;20058;-59
2022/05/06 11:42:45;;;;;;;2.05;1.02;;;21.00;55.60;;;;;;5099657;28;20498;-59
2022/05/06 11:48:10;;;;;;;3.33;2.00;;;21.20;55.00;;;;;;5107489;28;20047;-62
2022/05/06 11:50:39;;;;;;;2.67;1.70;;;21.30;54.80;;;;;;5107730;27;20722;-62
2022/05/06 11:53:15;;;;;;;2.83;2.22;;;21.20;53.50;;;;;;5106632;27;20034;-62
2022/05/06 11:55:43;;;;;;;1.67;1.58;;;21.20;53.40;;;;;;5108283;27;20381;-58
2022/05/06 11:58:15;;;;;;;2.22;1.33;;;21.20;53.80;;;;;;5110404;27;20370;-60
2022/05/06 12:00:42;;;;;;;2.10;1.83;;;21.20;54.00;;;;;;5104113;27;20806;-59
2022/05/06 12:03:09;;;;;;;2.63;1.92;;;21.30;52.70;;;;;;5104466;28;20950;-59
2022/05/06 12:05:36;;;;;;;1.10;1.00;;;21.30;52.80;;;;;;5107091;28;20035;-59
2022/05/06 12:08:02;;;;;;;1.50;1.40;;;21.30;53.40;;;;;;5101626;28;20123;-59
2022/05/06 12:10:33;;;;;;;3.42;1.90;;;21.50;52.40;;;;;;5088830;28;20114;-63
2022/05/06 12:13:00;;;;;;;1.60;1.38;;;21.50;52.00;;;;;;5110179;28;20020;-59
2022/05/06 12:15:32;;;;;;;1.20;1.10;;;21.60;51.70;;;;;;5104556;28;20077;-60
2022/05/06 12:18:18;;;;;;;1.63;1.00;;;21.60;52.10;;;;;;5098300;28;21581;-59
2022/05/06 12:20:46;;;;;;;2.47;1.70;;;21.70;51.30;;;;;;5104115;28;20041;-59
2022/05/06 12:23:13;;;;;;;4.07;1.85;;;21.80;50.90;;;;;;5101764;28;20031;-59
2022/05/06 12:25:40;;;;;;;1.83;1.50;;;21.80;50.40;;;;;;5109308;28;20042;-60
2022/05/06 12:28:13;;;;;;;1.85;1.75;;;21.80;50.20;;;;;;5105477;28;20144;-59
2022/05/06 12:30:39;;;;;;;1.77;1.58;;;21.80;50.30;;;;;;5101776;28;20026;-59
2022/05/06 12:33:08;;;;;;;1.63;1.17;;;21.90;50.30;;;;;;5105612;28;20024;-59
2022/05/06 12:36:02;;;;;;;1.42;1.33;;;22.00;50.90;;;;;;5106152;28;20031;-59
2022/05/06 12:38:40;;;;;;;1.27;1.13;;;22.00;50.50;;;;;;5085426;28;20118;-63
2022/05/06 12:41:26;;;;;;;1.67;1.38;;;22.10;49.90;;;;;;5104950;28;20028;-63
2022/05/06 12:43:54;;;;;;;1.33;1.20;;;22.20;49.90;;;;;;5106537;28;20126;-63
2022/05/06 12:46:28;;;;;;;0.93;0.93;;;22.40;49.60;;;;;;5091993;28;20047;-63
2022/05/06 12:51:42;;;;;;;1.90;1.35;;;22.60;48.40;;;;;;5103422;28;20042;-58
2022/05/06 12:54:09;;;;;;;2.15;1.45;;;22.70;48.50;;;;;;5100923;28;20096;-60
2022/05/06 12:56:35;;;;;;;1.67;1.50;;;22.80;47.50;;;;;;5095448;28;20020;-59
2022/05/06 12:59:02;;;;;;;2.65;1.70;;;22.80;47.10;;;;;;5107096;28;20043;-60
2022/05/06 13:01:27;;;;;;;2.85;1.42;;;22.80;46.80;;;;;;5106816;28;20497;-63
2022/05/06 13:03:53;;;;;;;0.90;0.90;;;22.90;46.70;;;;;;5086547;28;20036;-63
2022/05/06 13:06:19;;;;;;;2.45;1.35;;;22.90;47.20;;;;;;5091795;28;20816;-63
2022/05/06 13:08:45;;;;;;;1.77;1.40;;;23.00;47.00;;;;;;5107552;27;20032;-63
2022/05/06 13:11:11;;;;;;;2.17;1.73;;;23.00;46.50;;;;;;5103808;28;20047;-64
2022/05/06 13:13:37;;;;;;;1.55;1.45;;;23.00;47.20;;;;;;5104832;28;20020;-59
2022/05/06 13:16:03;;;;;;;1.98;1.40;;;23.00;46.90;;;;;;5113536;28;20035;-60
2022/05/06 13:18:30;;;;;;;1.52;1.40;;;23.10;46.50;;;;;;5111038;28;20374;-60
2022/05/06 13:20:56;;;;;;;1.75;1.50;;;23.20;46.70;;;;;;5112126;28;20044;-59
2022/05/06 13:23:22;;;;;;;1.65;1.30;;;23.30;46.60;;;;;;5099714;28;20052;-60
2022/05/06 13:25:49;;;;;;;2.20;1.30;;;23.30;45.90;;;;;;5110088;28;20562;-59
2022/05/06 13:28:15;;;;;;;1.17;1.00;;;23.40;45.70;;;;;;5109530;27;20043;-60